Date,TemperatureHighF,TemperatureAvgF,TemperatureLowF,DewpointHighF,DewpointAvgF,DewpointLowF,HumidityHigh,HumidityAvg,HumidityLow,PressureMaxIn,PressureMinIn,WindSpeedMaxMPH,WindSpeedAvgMPH,GustSpeedMaxMPH,PrecipitationSumIn
2013-1-1,49,37,27,18,16,14,65,44,26,30.45,30.31,6,0,10,0.00
2013-1-2,53,40,29,21,17,14,58,41,25,30.40,30.21,7,0,9,0.00
2013-1-3,55,42,31,14,12,9,46,31,17,30.41,30.29,5,1,11,0.00
2013-1-4,53,38,27,17,12,10,50,37,21,30.45,30.31,4,0,6,0.00
2013-1-5,52,38,25,19,15,11,59,41,24,30.48,30.26,1,0,5,0.00
2013-1-6,52,41,33,23,20,16,58,43,29,30.26,30.02,2,0,7,0.00
2013-1-7,61,47,35,24,20,16,58,36,19,30.16,30.04,10,0,11,0.00
2013-1-8,66,50,36,32,26,16,52,40,28,30.27,30.10,5,0,8,0.00
2013-1-9,62,49,38,34,30,27,68,49,32,30.28,29.89,2,0,8,0.00
2013-1-10,59,48,39,35,23,9,59,40,22,29.92,29.70,9,2,19,0.00
2013-1-11,49,40,32,18,12,8,45,33,22,30.10,29.93,7,1,14,0.00
2013-1-12,44,35,28,13,9,6,52,35,23,30.23,30.09,7,0,12,0.00
2013-1-13,41,32,22,9,6,1,52,35,24,30.32,30.19,12,1,16,0.00
2013-1-14,41,32,25,4,2,0,36,29,20,30.54,30.32,12,2,12,0.00
2013-1-15,47,35,23,15,9,2,47,36,26,30.67,30.54,4,0,9,0.00
2013-1-16,57,42,28,24,19,13,57,41,28,30.61,30.39,6,1,10,0.00
2013-1-17,63,45,32,20,18,16,55,36,19,30.50,30.32,7,0,10,0.00
2013-1-18,60,45,32,21,18,15,51,35,21,30.43,30.27,5,0,8,0.00
2013-1-19,63,45,32,20,17,15,52,35,18,30.44,30.27,8,0,8,0.00
2013-1-20,64,45,31,21,17,13,49,34,17,30.36,30.19,4,0,6,0.00
2013-1-21,66,49,34,20,16,13,45,29,15,30.35,30.19,6,0,9,0.00
2013-1-22,65,47,34,22,17,13,45,32,18,30.31,30.18,2,0,4,0.00
2013-1-23,63,50,38,29,23,17,50,36,22,30.30,30.16,1,0,4,0.00
2013-1-24,57,52,48,43,39,26,75,61,39,30.28,30.14,4,0,6,0.02
2013-1-25,65,56,48,50,44,41,86,66,46,30.27,30.02,1,0,7,0.03
2013-1-26,60,54,49,53,51,47,92,88,77,30.02,29.82,5,0,8,0.12
2013-1-27,67,56,45,49,39,29,93,55,36,29.88,29.79,6,1,21,0.12
2013-1-28,55,47,37,31,21,16,57,37,24,30.10,29.88,11,2,21,0.00
2013-1-29,61,48,38,30,25,19,61,42,30,30.29,30.04,6,0,10,0.00
2013-1-30,62,48,35,33,30,27,72,52,31,30.39,30.24,2,0,9,0.00
2013-1-31,67,51,37,35,33,30,75,53,29,30.35,30.19,4,0,5,0.00
2013-2-1,68,51,37,37,33,30,76,53,31,30.30,30.18,4,0,5,0.00
2013-2-2,68,56,43,36,32,29,67,44,25,30.36,30.19,5,0,7,0.00
2013-2-3,71,58,49,37,34,32,56,41,28,30.18,30.00,4,0,7,0.00
2013-2-4,72,55,42,35,31,28,68,43,22,30.15,30.00,3,0,6,0.00
2013-2-5,70,54,39,33,30,27,64,42,23,30.06,29.85,5,0,10,0.00
2013-2-6,74,58,45,35,28,21,55,34,18,30.05,29.82,7,0,14,0.00
2013-2-7,70,56,39,31,26,21,55,34,23,30.12,29.74,11,1,15,0.00
2013-2-8,59,52,44,32,26,22,52,38,26,29.76,29.68,10,2,21,0.00
2013-2-9,59,49,40,31,25,21,67,42,27,29.99,29.74,6,1,15,0.00
2013-2-10,58,46,37,27,21,18,50,38,24,30.07,29.93,11,1,18,0.00
2013-2-11,55,45,34,25,18,13,58,36,22,30.29,30.08,8,1,12,0.00
2013-2-12,58,44,32,21,17,13,49,35,21,30.42,30.29,6,0,8,0.00
2013-2-13,65,50,34,28,23,17,53,36,24,30.35,30.16,7,1,10,0.00
2013-2-14,70,55,39,31,27,24,57,36,22,30.32,30.17,9,1,14,0.00
2013-2-15,71,55,42,28,25,22,52,33,18,30.42,30.29,6,0,10,0.00
2013-2-16,68,53,38,29,24,21,53,35,20,30.37,30.00,4,0,6,0.00
2013-2-17,75,57,39,28,22,16,50,29,14,30.00,29.77,7,0,12,0.00
2013-2-18,65,54,42,25,23,21,45,31,20,30.09,29.86,6,0,9,0.00
2013-2-19,69,52,37,31,26,20,52,37,22,29.86,29.55,9,2,18,0.00
2013-2-20,59,50,42,41,33,27,76,54,34,29.88,29.51,7,1,13,0.01
2013-2-21,57,45,35,34,24,17,79,49,23,30.10,29.87,5,0,7,0.00
2013-2-22,61,48,34,22,19,15,50,34,21,30.23,30.10,6,0,6,0.00
2013-2-23,68,50,38,28,20,11,51,33,20,30.13,29.83,8,2,19,0.00
2013-2-24,60,50,40,16,13,10,31,24,16,30.26,30.12,13,2,19,0.00
2013-2-25,60,47,34,19,16,13,44,29,19,30.32,30.03,6,0,8,0.00
2013-2-26,63,50,34,20,15,13,44,27,15,30.30,30.08,8,2,20,0.00
2013-2-27,62,49,35,18,14,10,45,26,14,30.43,30.29,8,1,11,0.00
2013-2-28,68,52,34,23,16,11,40,25,15,30.47,30.34,2,0,7,0.00
2013-3-1,77,59,41,33,25,16,40,29,19,30.48,30.25,5,0,9,0.00
2013-3-2,78,62,45,36,32,27,51,33,21,30.33,30.00,5,0,7,0.00
2013-3-3,81,71,58,37,33,25,36,25,20,29.99,29.71,16,3,28,0.00
2013-3-4,76,65,54,40,35,28,52,35,21,30.05,29.76,7,1,11,0.00
2013-3-5,76,62,47,35,31,-100,52,33,21,30.10,29.85,12,-9,19,0.00
2013-3-6,75,64,55,36,33,29,46,33,21,29.91,29.78,10,2,20,0.00
2013-3-7,68,59,52,35,33,31,50,39,28,29.87,29.76,8,2,18,0.00
2013-3-8,55,50,45,43,38,34,79,63,49,29.84,29.67,11,1,26,0.19
2013-3-9,63,51,46,40,37,36,72,60,36,30.02,29.84,7,1,11,0.00
2013-3-10,71,63,53,29,21,-100,36,23,18,30.32,0.00,7,-20,12,0.00
2013-3-11,75,59,42,33,29,25,53,34,20,30.25,30.04,2,0,7,0.00
2013-3-12,80,63,46,37,32,27,49,33,19,30.18,30.04,5,0,10,0.00
2013-3-13,86,68,49,41,36,31,52,32,19,30.22,30.05,5,0,9,0.00
2013-3-14,88,71,52,41,36,32,48,29,15,30.17,29.96,2,0,7,0.00
2013-3-15,88,71,56,40,36,32,44,29,17,29.98,29.75,4,0,9,0.00
2013-3-16,90,76,62,40,31,23,34,21,11,29.80,29.62,4,0,10,0.00
2013-3-17,86,74,65,31,24,18,24,16,10,29.83,29.63,8,1,16,0.00
2013-3-18,81,69,54,28,22,19,28,18,11,29.97,29.79,8,0,9,0.00
2013-3-19,83,71,59,34,29,25,29,22,15,29.98,29.82,9,1,13,0.00
2013-3-20,79,71,62,39,35,27,32,27,21,29.93,29.71,7,1,15,0.00
2013-3-21,85,70,54,39,28,16,47,25,9,29.79,29.63,11,2,21,0.00
2013-3-22,80,67,57,24,17,2,28,16,8,29.81,29.66,11,2,19,0.00
2013-3-23,65,56,47,17,14,3,26,19,9,30.16,29.83,10,2,18,0.00
2013-3-24,73,58,42,23,17,12,34,21,12,30.13,29.91,6,0,9,0.00
2013-3-25,77,63,46,26,22,17,34,22,14,30.04,29.83,5,0,8,0.00
2013-3-26,82,69,54,33,28,23,36,23,12,29.85,29.68,6,0,18,0.00
2013-3-27,83,70,59,38,34,31,40,27,17,29.83,29.72,8,1,13,0.00
2013-3-28,82,71,60,41,38,34,44,31,22,29.94,29.82,5,0,12,0.00
2013-3-29,88,71,54,41,36,31,50,30,18,30.05,29.89,6,0,12,0.00
2013-3-30,88,72,59,40,35,30,37,27,17,30.00,29.85,8,0,8,0.00
2013-3-31,86,71,56,44,38,34,47,31,19,29.91,29.75,14,2,23,0.00
2013-4-1,81,69,58,41,38,32,49,33,22,29.91,29.79,12,2,25,0.00
2013-4-2,83,70,56,39,35,30,42,28,20,29.96,29.84,7,1,13,0.00
2013-4-3,87,71,56,42,36,33,46,30,16,30.05,29.88,5,0,8,0.00
2013-4-4,92,74,57,43,36,31,41,27,15,29.97,29.75,10,1,20,0.00
2013-4-5,89,76,64,43,38,30,42,27,15,29.85,29.71,8,2,14,0.00
2013-4-6,89,76,62,39,36,32,36,24,16,29.86,29.71,7,1,12,0.00
2013-4-7,91,78,61,39,35,30,38,22,12,29.78,29.44,8,1,19,0.00
2013-4-8,72,62,50,43,34,24,74,38,18,29.59,29.27,16,3,26,0.07
2013-4-9,75,62,54,29,25,21,30,25,17,30.04,29.60,13,4,23,0.00
2013-4-10,77,63,46,29,26,23,47,26,15,30.13,29.89,7,0,10,0.00
2013-4-11,83,66,52,33,29,23,38,25,15,29.90,29.65,6,0,12,0.00
2013-4-12,88,72,57,40,35,27,37,26,17,29.82,29.64,5,0,9,0.00
2013-4-13,92,77,58,38,34,29,44,23,12,29.70,29.41,13,2,23,0.00
2013-4-14,91,78,65,44,38,34,35,24,18,29.60,29.32,8,1,20,0.00
2013-4-15,83,72,63,38,34,28,33,26,17,29.52,29.35,15,4,30,0.00
2013-4-16,71,61,52,35,30,26,45,32,19,29.87,29.46,14,3,25,0.00
2013-4-17,70,59,49,30,24,17,47,26,14,30.19,29.88,11,2,18,0.00
2013-4-18,73,60,44,23,20,17,40,23,14,30.29,30.16,9,1,13,0.00
2013-4-19,81,65,45,26,22,16,35,20,13,30.24,29.87,6,0,8,0.00
2013-4-20,87,72,55,36,29,18,31,20,14,30.00,29.84,7,1,11,0.00
2013-4-21,93,76,56,36,30,26,34,20,11,29.98,29.74,6,0,10,0.00
2013-4-22,96,82,64,37,33,26,31,18,12,29.81,29.56,6,1,12,0.00
2013-4-23,79,69,61,30,22,16,24,17,12,30.05,29.70,12,3,23,0.00
2013-4-24,85,69,51,28,20,15,26,17,9,29.97,29.77,6,1,14,0.00
2013-4-25,90,74,54,33,26,19,34,18,11,29.86,29.75,7,1,11,0.00
2013-4-26,92,78,59,38,32,26,35,20,11,30.04,29.85,6,0,8,0.00
2013-4-27,96,79,60,35,30,26,31,18,10,30.07,29.84,6,0,10,0.00
2013-4-28,102,82,62,36,31,26,28,17,10,29.88,29.63,7,0,9,0.00
2013-4-29,105,88,71,39,34,27,27,15,10,29.71,29.46,11,1,16,0.00
2013-4-30,102,88,78,48,39,33,23,18,13,29.57,29.41,16,2,16,0.00
2013-5-1,85,76,64,33,17,12,16,11,7,30.26,29.59,13,5,22,0.00
2013-5-2,83,71,58,25,18,11,21,14,9,30.40,30.09,15,4,20,0.00
2013-5-3,91,75,56,27,22,16,26,15,7,30.10,29.68,5,0,13,0.00
2013-5-4,95,79,57,32,25,20,28,15,9,29.68,29.45,10,1,20,0.00
2013-5-5,83,76,65,34,30,26,29,19,14,29.69,29.54,11,3,20,0.00
2013-5-6,79,71,64,57,40,31,61,33,24,29.81,29.69,8,1,21,0.04
2013-5-7,78,70,61,44,40,37,47,34,25,29.88,29.79,11,1,15,0.00
2013-5-8,82,70,58,44,41,37,55,37,24,29.99,29.87,6,0,13,0.00
2013-5-9,83,72,60,47,43,39,48,37,25,29.96,29.87,8,1,14,0.00
2013-5-10,93,78,60,50,45,39,57,34,17,30.03,29.90,10,1,13,0.00
2013-5-11,98,82,66,48,41,36,39,25,14,30.07,29.92,5,0,11,0.00
2013-5-12,104,86,67,45,38,33,32,20,11,30.04,29.82,7,0,9,0.00
2013-5-13,107,90,70,45,39,33,32,18,11,29.91,29.70,7,0,11,0.00
2013-5-14,107,93,79,46,38,28,25,15,9,29.74,29.54,9,2,22,0.00
2013-5-15,102,88,75,46,39,32,27,18,13,29.73,29.57,7,1,22,0.00
2013-5-16,100,87,76,39,36,31,24,17,10,29.67,29.51,16,2,22,0.00
2013-5-17,90,80,72,45,40,36,32,25,20,29.74,29.57,11,2,20,0.00
2013-5-18,95,81,67,46,40,31,39,25,14,29.84,29.68,6,1,14,0.00
2013-5-19,94,82,68,39,35,28,27,19,13,29.87,29.71,13,2,16,0.00
2013-5-20,90,78,64,39,33,28,37,21,13,29.98,29.81,10,1,18,0.00
2013-5-21,98,82,64,40,34,25,27,18,9,29.85,29.52,10,1,18,0.00
2013-5-22,97,85,75,39,34,25,24,17,8,29.54,29.39,26,4,28,0.00
2013-5-23,94,80,67,38,27,19,27,16,7,29.69,29.46,14,3,24,0.00
2013-5-24,94,81,66,37,29,22,23,15,11,29.80,29.63,9,2,16,0.00
2013-5-25,98,84,72,36,32,27,24,16,10,29.77,29.64,13,2,19,0.00
2013-5-26,95,84,72,39,36,32,25,19,13,29.76,29.65,14,2,21,0.00
2013-5-27,98,84,69,43,38,35,30,20,13,29.76,29.55,7,1,14,0.00
2013-5-28,98,85,73,44,37,26,27,19,12,29.60,29.44,13,2,19,0.00
2013-5-29,95,83,69,45,39,35,31,21,15,29.69,29.47,7,1,12,0.00
2013-5-30,103,88,71,42,38,32,30,18,11,29.71,29.52,8,1,14,0.00
2013-5-31,102,89,72,41,34,28,25,15,10,29.81,29.60,7,1,14,0.00
2013-6-1,103,90,76,43,32,26,20,13,9,29.87,29.61,7,1,12,0.00
2013-6-2,110,92,71,42,35,25,23,14,8,29.65,29.43,8,1,19,0.00
2013-6-3,106,94,80,46,41,36,26,16,11,29.59,29.48,10,2,16,0.00
2013-6-4,108,93,75,48,40,33,28,17,11,29.68,29.54,12,0,12,0.00
2013-6-5,110,94,78,45,40,33,24,15,11,29.74,29.56,6,0,9,0.00
2013-6-6,112,97,81,50,41,35,24,15,10,29.69,29.52,4,0,10,0.00
2013-6-7,114,97,79,50,41,34,24,15,8,29.66,29.48,7,0,11,0.00
2013-6-8,116,100,81,47,41,35,24,14,9,29.59,29.48,9,1,18,0.00
2013-6-9,111,98,81,49,42,36,30,15,10,29.67,29.53,11,1,16,0.00
2013-6-10,107,93,79,47,39,30,28,16,10,29.65,29.51,28,3,28,0.00
2013-6-11,106,91,74,46,42,36,29,18,12,29.79,29.63,8,1,14,0.00
2013-6-12,110,97,84,49,42,37,24,15,10,29.73,29.58,10,1,16,0.00
2013-6-13,107,93,80,45,37,24,27,15,7,29.71,29.58,19,2,22,0.00
2013-6-14,107,92,78,41,30,23,19,12,7,29.73,29.54,13,1,13,0.00
2013-6-15,108,90,69,37,30,23,25,13,7,29.70,29.59,9,1,19,0.00
2013-6-16,106,90,73,37,30,24,23,12,7,29.79,29.66,9,1,20,0.00
2013-6-17,107,93,75,39,33,28,21,13,8,29.78,29.59,8,1,14,0.00
2013-6-18,108,95,82,41,35,32,21,13,8,29.65,29.46,11,2,22,0.00
2013-6-19,103,91,79,41,30,-100,22,12,9,29.60,0.00,11,-28,21,0.00
2013-6-20,103,89,76,35,28,17,15,11,8,29.66,29.53,9,1,19,0.00
2013-6-21,105,90,79,39,33,29,21,14,9,29.67,29.52,7,2,18,0.00
2013-6-22,104,90,77,41,34,29,19,14,10,29.70,29.52,8,1,16,0.00
2013-6-23,104,88,74,44,38,33,27,18,11,29.60,29.44,10,1,22,0.00
2013-6-24,96,88,78,51,45,38,30,23,15,29.65,29.52,14,3,22,0.00
2013-6-25,105,91,77,56,52,49,40,27,18,29.77,29.64,12,1,15,0.00
2013-6-26,110,100,83,59,55,50,35,22,17,29.81,29.67,11,1,19,0.00
2013-6-27,113,98,81,58,53,47,38,23,15,29.87,29.71,7,0,10,0.00
2013-6-28,118,102,84,56,53,49,34,20,12,29.80,29.57,6,0,9,0.00
2013-6-29,121,105,90,56,51,47,26,17,11,29.68,29.48,5,0,13,0.00
2013-6-30,122,106,88,62,51,45,27,16,11,29.63,29.45,5,0,10,0.00
2013-7-1,117,107,95,61,56,49,27,19,14,29.64,29.52,6,1,13,0.00
2013-7-2,119,106,92,59,55,52,27,19,12,29.68,29.50,8,1,15,0.00
2013-7-3,118,104,92,58,55,52,30,20,12,29.63,29.43,6,0,12,0.00
2013-7-4,117,104,90,60,56,51,27,20,15,29.54,29.38,7,1,18,0.00
2013-7-5,110,100,88,62,57,50,36,25,17,29.56,29.42,15,3,21,0.00
2013-7-6,106,96,86,59,55,51,36,25,18,29.62,29.48,9,1,13,0.00
2013-7-7,108,92,80,74,60,51,64,35,19,29.65,29.51,5,0,38,0.31
2013-7-8,111,93,76,57,49,41,42,25,11,29.77,29.63,6,1,20,0.10
2013-7-9,114,99,82,50,44,39,28,16,10,29.83,29.67,12,1,16,0.00
2013-7-10,111,98,84,65,56,42,32,24,17,29.75,29.58,7,1,14,0.00
2013-7-11,95,89,84,68,62,57,58,41,31,29.76,29.63,9,2,18,0.00
2013-7-12,97,88,81,67,63,59,56,45,32,29.81,29.68,5,0,10,0.00
2013-7-13,107,93,78,64,60,54,57,36,19,29.82,29.64,6,1,12,0.00
2013-7-14,108,95,82,62,56,50,38,28,20,29.77,29.61,6,0,11,0.00
2013-7-15,113,98,85,63,59,48,44,28,17,29.67,29.48,6,0,15,0.00
2013-7-16,108,98,88,60,50,44,23,20,16,29.72,29.58,10,1,18,0.00
2013-7-17,109,96,80,59,49,31,30,21,11,29.85,29.68,8,1,12,0.00
2013-7-18,114,99,81,59,46,31,26,17,11,29.81,29.59,11,0,13,0.00
2013-7-19,113,97,80,70,60,54,70,32,18,29.72,29.52,16,1,28,0.43
2013-7-20,108,92,75,70,66,62,83,45,25,29.75,29.52,10,1,18,0.90
2013-7-21,92,85,78,70,68,65,76,58,44,29.79,29.64,5,0,10,0.00
2013-7-22,99,89,78,69,65,59,71,47,30,29.85,29.69,7,1,12,0.00
2013-7-23,104,90,80,67,63,61,55,42,29,29.85,29.69,8,0,11,0.00
2013-7-24,110,96,82,66,63,58,55,35,21,29.77,29.58,8,0,9,0.00
2013-7-25,115,101,86,62,59,54,35,25,17,29.75,29.61,19,2,21,0.00
2013-7-26,109,96,86,67,62,58,45,32,23,29.86,29.74,8,1,23,0.00
2013-7-27,100,89,80,67,64,62,55,44,34,29.91,29.69,8,1,15,0.00
2013-7-28,100,87,78,67,62,55,60,45,30,29.73,29.62,18,2,27,0.01
2013-7-29,108,90,73,62,57,46,63,37,16,29.81,29.70,5,0,14,0.00
2013-7-30,106,94,78,57,51,44,37,23,17,29.92,29.77,8,1,15,0.00
2013-7-31,112,96,78,58,55,52,44,26,15,29.89,29.66,8,1,13,0.00
2013-8-1,110,97,86,55,45,36,27,17,10,29.74,29.57,12,2,24,0.00
2013-8-2,108,94,81,49,41,34,22,16,10,29.74,29.61,7,1,15,0.00
2013-8-3,109,92,73,51,44,39,35,20,13,29.80,29.66,7,1,15,0.00
2013-8-4,110,94,77,57,47,39,35,20,13,29.80,29.63,8,1,12,0.00
2013-8-5,109,94,80,46,41,33,27,17,10,29.79,29.64,6,0,23,0.00
2013-8-6,105,94,78,54,44,33,29,19,11,29.79,29.65,9,1,16,0.00
2013-8-7,106,94,80,44,36,31,27,14,8,29.81,29.68,14,1,16,0.00
2013-8-8,104,91,79,42,38,35,22,16,11,29.76,29.63,12,2,18,0.00
2013-8-9,106,92,77,46,39,34,25,16,12,29.75,29.64,12,1,16,0.00
2013-8-10,104,90,74,44,38,33,28,17,11,29.82,29.69,9,1,16,0.00
2013-8-11,106,90,71,44,38,32,30,17,9,29.84,29.66,7,1,14,0.00
2013-8-12,107,91,71,44,38,34,27,16,10,29.82,29.66,3,0,8,0.00
2013-8-13,108,92,72,43,36,30,26,15,9,29.83,29.68,6,0,11,0.00
2013-8-14,109,91,73,44,38,32,25,16,10,29.83,29.66,6,0,10,0.00
2013-8-15,110,93,76,59,46,34,28,20,15,29.83,29.65,6,0,8,0.00
2013-8-16,111,98,81,61,56,53,42,26,17,29.79,29.62,5,0,11,0.00
2013-8-17,115,99,82,59,55,51,39,24,14,29.77,29.57,13,1,16,0.00
2013-8-18,107,89,77,71,61,54,77,43,23,29.91,29.68,9,1,20,0.38
2013-8-19,99,86,73,68,64,61,82,52,29,29.94,29.72,4,0,8,0.02
2013-8-20,110,95,80,66,62,55,57,35,19,29.78,29.59,4,0,11,0.00
2013-8-21,110,96,80,60,55,50,45,27,16,29.77,29.62,4,0,9,0.00
2013-8-22,108,94,82,58,55,52,39,27,18,29.79,29.65,8,1,18,0.00
2013-8-23,100,88,81,64,60,53,55,39,27,29.79,29.63,14,1,19,0.00
2013-8-24,95,86,78,65,61,56,60,44,29,29.79,29.68,16,1,26,0.00
2013-8-25,92,81,74,67,62,57,65,53,37,29.95,29.78,11,1,19,0.00
2013-8-26,79,76,72,69,65,62,83,70,60,29.97,29.86,4,0,8,0.04
2013-8-27,98,84,70,66,64,60,81,54,32,29.89,29.70,7,0,12,0.00
2013-8-28,104,90,77,66,63,60,59,42,27,29.81,29.69,5,0,21,0.00
2013-8-29,103,92,80,69,65,63,59,42,30,29.88,29.77,6,0,10,0.00
2013-8-30,95,86,76,74,69,63,89,59,45,29.96,29.79,4,0,8,0.13
2013-8-31,99,86,79,74,69,66,71,58,39,29.87,29.73,8,1,14,0.00
2013-9-1,98,87,78,71,68,66,73,56,39,29.85,29.68,5,0,11,0.00
2013-9-2,105,88,80,75,68,65,73,53,29,29.83,29.66,6,0,13,1.05
2013-9-3,99,87,75,69,64,58,79,49,28,29.90,29.73,9,1,18,0.04
2013-9-4,106,87,77,71,64,58,75,49,23,29.87,29.73,8,0,20,0.16
2013-9-5,105,88,73,67,63,60,75,47,23,29.88,29.73,5,0,9,0.00
2013-9-6,105,88,76,64,60,55,58,40,25,29.81,29.71,7,1,14,0.00
2013-9-7,90,85,80,64,61,58,55,45,37,29.86,29.75,5,0,10,0.00
2013-9-8,87,79,70,69,66,61,91,65,50,29.87,29.70,2,0,7,0.36
2013-9-9,96,80,72,69,66,59,84,64,34,29.74,29.57,10,0,22,0.25
2013-9-10,89,79,72,67,63,58,82,60,39,29.79,29.71,6,0,13,0.00
2013-9-11,85,75,70,66,63,58,84,68,41,29.90,29.78,11,0,29,0.21
2013-9-12,86,76,68,65,63,59,85,64,42,29.94,29.77,5,0,7,0.00
2013-9-13,95,83,70,64,61,57,76,50,29,29.80,29.57,4,0,7,0.00
2013-9-14,97,84,72,63,59,56,66,45,27,29.69,29.55,5,0,6,0.00
2013-9-15,101,87,72,60,57,54,58,38,24,29.74,29.61,5,0,9,0.00
2013-9-16,106,90,74,59,55,50,50,32,19,29.76,29.58,6,0,10,0.00
2013-9-17,106,90,75,55,47,34,44,24,13,29.63,29.43,13,1,24,0.00
2013-9-18,99,86,73,45,40,36,29,20,11,29.64,29.51,7,1,11,0.00
2013-9-19,98,83,67,47,41,36,34,24,14,29.79,29.64,7,1,12,0.00
2013-9-20,100,84,65,48,42,38,40,24,15,29.77,29.58,9,1,14,0.00
2013-9-21,100,85,69,51,42,36,37,24,11,29.67,29.45,16,2,25,0.00
2013-9-22,85,76,66,46,41,36,39,29,21,29.75,29.47,18,3,27,0.00
2013-9-23,93,77,62,44,39,33,40,26,17,29.91,29.74,5,0,8,0.00
2013-9-24,100,80,59,46,38,34,44,24,13,29.89,29.59,6,1,18,0.00
2013-9-25,93,83,73,41,38,32,31,21,12,29.60,29.34,23,5,28,0.00
2013-9-26,82,70,62,39,32,24,34,24,17,29.81,29.44,13,2,26,0.00
2013-9-27,80,68,54,38,33,29,43,29,20,30.02,29.82,7,1,12,0.00
2013-9-28,85,69,54,38,33,30,44,28,15,30.11,29.98,5,0,9,0.00
2013-9-29,90,73,54,37,32,29,43,25,13,30.06,29.84,9,0,10,0.00
2013-9-30,91,74,57,41,36,30,41,26,16,29.91,29.73,6,0,8,0.00
2013-10-1,97,77,58,44,39,34,47,27,14,29.85,29.68,9,0,13,0.00
2013-10-2,96,80,63,46,41,36,44,27,17,29.79,29.61,10,1,18,0.00
2013-10-3,90,77,65,42,34,17,30,21,13,29.93,29.60,12,2,20,0.00
2013-10-4,76,68,62,31,27,21,25,21,19,30.25,29.95,13,6,19,0.00
2013-10-5,79,66,51,33,28,25,39,25,16,30.36,30.19,8,1,13,0.00
2013-10-6,86,68,51,34,28,24,39,24,12,30.25,30.01,6,0,8,0.00
2013-10-7,82,68,53,35,30,24,38,26,16,30.02,29.79,4,0,7,0.00
2013-10-8,90,70,52,34,30,27,45,25,12,29.79,29.56,16,1,16,0.00
2013-10-9,70,65,54,44,36,29,65,36,23,29.66,29.49,8,1,15,0.01
2013-10-10,71,60,53,44,41,40,69,51,34,29.94,29.65,7,0,11,0.01
2013-10-11,75,62,49,44,41,38,68,48,30,30.06,29.91,4,0,8,0.00
2013-10-12,79,66,52,44,39,36,58,39,25,29.98,29.78,6,0,11,0.00
2013-10-13,82,68,57,40,37,34,46,32,19,29.99,29.75,7,1,20,0.00
2013-10-14,76,64,51,41,37,33,60,40,24,30.12,29.98,7,0,13,0.00
2013-10-15,77,65,51,36,33,29,50,32,19,30.08,29.96,12,2,18,0.00
2013-10-16,75,63,49,34,30,26,47,30,18,30.19,30.03,7,1,11,0.00
2013-10-17,80,62,47,34,28,24,46,29,16,30.08,29.89,2,0,7,0.00
2013-10-18,82,65,48,35,30,25,46,28,17,30.11,29.97,6,0,10,0.00
2013-10-19,82,65,49,36,31,27,46,30,16,30.11,29.93,5,0,7,0.00
2013-10-20,84,65,48,35,30,25,45,28,15,29.98,29.81,4,0,7,0.00
2013-10-21,78,65,56,36,30,23,32,27,19,30.01,29.89,0,0,5,0.00
2013-10-22,86,68,52,38,32,28,42,29,16,30.07,29.91,1,0,8,0.00
2013-10-23,84,67,53,39,33,29,46,29,16,29.97,29.83,2,0,5,0.00
2013-10-24,86,70,54,39,33,28,40,27,15,29.96,29.84,1,0,7,0.00
2013-10-25,86,69,54,42,36,32,46,31,19,30.07,29.96,2,0,7,0.00
2013-10-26,88,68,52,41,36,30,47,32,18,30.15,29.97,1,0,5,0.00
2013-10-27,89,70,54,39,34,31,47,29,14,29.97,29.49,9,1,14,0.00
2013-10-28,72,66,57,38,35,29,42,32,23,29.72,29.41,15,4,30,0.00
2013-10-29,69,55,52,38,24,-100,53,39,28,29.93,29.73,7,-70,14,0.00
2013-10-30,68,55,47,39,31,-100,60,44,29,30.07,29.93,5,-31,10,0.00
2013-10-31,70,57,43,36,32,28,55,39,27,30.20,30.07,3,0,7,0.00
2013-11-1,76,58,46,39,30,-100,56,38,24,30.25,30.07,4,-21,7,0.00
2013-11-2,76,60,45,37,34,31,62,40,21,30.09,29.78,1,0,6,0.00
2013-11-3,78,60,47,35,30,-100,53,36,19,29.82,29.71,1,-10,7,0.00
2013-11-4,62,56,47,33,28,24,48,35,26,30.02,29.75,7,0,12,0.00
2013-11-5,65,52,43,28,21,-100,55,32,19,30.32,30.03,10,-9,15,0.00
2013-11-6,45,42,39,21,19,18,47,40,34,30.36,30.32,1,0,5,0.00
2013-11-15,73,58,54,33,22,-100,38,29,21,29.61,29.51,3,-60,7,0.00
2013-11-16,72,60,45,40,34,26,52,38,28,29.80,29.60,6,1,15,0.00
2013-11-17,59,52,48,36,36,35,62,54,43,29.93,29.80,0,0,5,0.00
2013-12-16,71,58,44,35,32,28,55,38,24,30.36,30.23,2,0,4,0.00
2013-12-17,72,51,36,36,31,26,70,48,24,30.34,30.12,3,0,3,0.00
2013-12-18,64,50,42,35,32,28,67,51,31,30.11,29.66,1,0,4,0.00
2013-12-19,65,48,39,36,32,29,70,55,33,29.66,29.56,7,0,12,0.00
2013-12-20,62,53,45,31,26,17,57,35,29,29.86,29.75,8,2,17,0.00
2013-12-21,68,50,38,31,24,16,52,38,25,30.06,29.80,7,0,8,0.00
2013-12-22,67,50,39,33,29,26,64,47,26,30.34,30.06,3,0,6,0.00
2013-12-23,68,50,36,36,31,26,70,51,30,30.46,30.33,3,0,5,0.00
2013-12-24,70,51,37,37,33,28,74,51,29,30.35,30.21,5,0,8,0.00
2013-12-25,70,52,39,31,27,21,63,41,19,30.43,30.29,3,0,7,0.00
2013-12-26,70,49,33,26,21,18,56,36,17,30.39,30.24,3,0,5,0.00
2013-12-27,74,49,34,27,23,18,55,38,17,30.34,30.12,2,0,4,0.00
2013-12-28,66,48,39,30,25,22,57,43,23,30.14,29.96,1,0,4,0.00
2013-12-29,62,49,40,24,20,16,50,33,19,30.31,30.14,13,1,17,0.00
2013-12-30,66,46,32,24,20,16,57,37,17,30.36,30.22,1,0,4,0.00
2013-12-31,66,47,33,25,21,17,57,39,20,30.28,30.13,2,0,4,0.00
2014-1-1,72,50,33,31,25,20,61,41,21,30.29,30.15,2,0,6,0.00
2014-1-2,72,51,36,33,27,23,64,43,21,30.27,30.09,2,0,6,0.00